Current Weather

De Kalb Taylor Muni

De Kalb, Illinois (KDKB)

Report from: Wednesday, September 28, 2022 3:55 AM CDT
Current time: Wednesday, September 28, 2022 4:23 AM CDT

Nearby weather
Weather history
Weather forecast

Temperature5.8°C (42.4°F)
Wind chill3.8°C (38.8°F)
Dew point5.2°C (41.4°F)
Winds 5 kts (2.6 m/s, 5.8 mph) North-Northwest (330°)
Visibility10 mi. (16.1 km)
Clouds Sky clear
Altimeter30.36 in.Hg (1028 mB)
Relative humidity96 %
Density altitude-1,485 ft. (-453 m)
Remarks Fully automated report
Automated weather observing station with precipitation discriminator
Flight conditions Visual Meteorological Conditions
Raw dataKDKB 280855Z AUTO 33005KT 10SM CLR 06/05 A3036 RMK AO2 T00580052
An error has occurred. This application may no longer respond until reloaded. Reload 🗙